sensor_id;sensor_type;location;lat;lon;timestamp;P1;durP1;ratioP1;P2;durP2;ratioP2
39188;SDS011;24915;50.858;4.376;2023-04-03T00:01:34;14.63;;;9.45;;
39188;SDS011;24915;50.858;4.376;2023-04-03T00:04:03;17.10;;;10.18;;
39188;SDS011;24915;50.858;4.376;2023-04-03T00:06:32;14.60;;;9.05;;
39188;SDS011;24915;50.858;4.376;2023-04-03T00:08:58;14.98;;;9.07;;
39188;SDS011;24915;50.858;4.376;2023-04-03T00:11:23;15.68;;;9.32;;
39188;SDS011;24915;50.858;4.376;2023-04-03T00:13:50;12.73;;;8.88;;
39188;SDS011;24915;50.858;4.376;2023-04-03T00:16:16;14.68;;;8.52;;
39188;SDS011;24915;50.858;4.376;2023-04-03T00:18:42;15.18;;;9.48;;
39188;SDS011;24915;50.858;4.376;2023-04-03T00:21:09;16.60;;;8.38;;
39188;SDS011;24915;50.858;4.376;2023-04-03T00:23:36;15.77;;;8.63;;
39188;SDS011;24915;50.858;4.376;2023-04-03T00:26:02;13.43;;;8.07;;
39188;SDS011;24915;50.858;4.376;2023-04-03T00:28:28;15.45;;;8.93;;
39188;SDS011;24915;50.858;4.376;2023-04-03T00:30:54;12.50;;;8.55;;
39188;SDS011;24915;50.858;4.376;2023-04-03T00:33:20;10.60;;;8.20;;
39188;SDS011;24915;50.858;4.376;2023-04-03T00:35:47;13.45;;;7.90;;
39188;SDS011;24915;50.858;4.376;2023-04-03T00:38:13;14.45;;;8.05;;
39188;SDS011;24915;50.858;4.376;2023-04-03T00:40:41;12.63;;;8.20;;
39188;SDS011;24915;50.858;4.376;2023-04-03T00:43:14;9.75;;;7.97;;
39188;SDS011;24915;50.858;4.376;2023-04-03T00:45:48;17.08;;;8.02;;
39188;SDS011;24915;50.858;4.376;2023-04-03T00:48:28;14.57;;;7.75;;
39188;SDS011;24915;50.858;4.376;2023-04-03T00:50:56;13.88;;;8.20;;
39188;SDS011;24915;50.858;4.376;2023-04-03T00:53:28;15.07;;;8.57;;
39188;SDS011;24915;50.858;4.376;2023-04-03T00:56:01;13.38;;;8.38;;
39188;SDS011;24915;50.858;4.376;2023-04-03T00:58:35;15.48;;;8.07;;
39188;SDS011;24915;50.858;4.376;2023-04-03T01:01:05;15.95;;;7.80;;
39188;SDS011;24915;50.858;4.376;2023-04-03T01:03:33;13.32;;;7.75;;
39188;SDS011;24915;50.858;4.376;2023-04-03T01:05:59;13.25;;;7.68;;
39188;SDS011;24915;50.858;4.376;2023-04-03T01:08:25;15.40;;;8.77;;
39188;SDS011;24915;50.858;4.376;2023-04-03T01:10:51;15.15;;;7.35;;
39188;SDS011;24915;50.858;4.376;2023-04-03T01:15:53;12.00;;;7.82;;
39188;SDS011;24915;50.858;4.376;2023-04-03T01:18:20;12.25;;;8.63;;
39188;SDS011;24915;50.858;4.376;2023-04-03T01:20:59;13.55;;;7.90;;
39188;SDS011;24915;50.858;4.376;2023-04-03T01:26:33;10.18;;;7.57;;
39188;SDS011;24915;50.858;4.376;2023-04-03T01:29:00;14.38;;;8.35;;
39188;SDS011;24915;50.858;4.376;2023-04-03T01:31:46;16.15;;;7.70;;
39188;SDS011;24915;50.858;4.376;2023-04-03T01:34:13;11.63;;;7.72;;
39188;SDS011;24915;50.858;4.376;2023-04-03T01:36:39;12.70;;;8.75;;
39188;SDS011;24915;50.858;4.376;2023-04-03T01:39:06;13.13;;;8.10;;
39188;SDS011;24915;50.858;4.376;2023-04-03T01:41:32;16.83;;;7.97;;
39188;SDS011;24915;50.858;4.376;2023-04-03T01:43:58;11.20;;;8.10;;
39188;SDS011;24915;50.858;4.376;2023-04-03T01:46:23;14.85;;;8.23;;
39188;SDS011;24915;50.858;4.376;2023-04-03T01:48:49;12.48;;;8.05;;
39188;SDS011;24915;50.858;4.376;2023-04-03T01:51:15;15.55;;;9.52;;
39188;SDS011;24915;50.858;4.376;2023-04-03T01:53:41;13.65;;;8.20;;
39188;SDS011;24915;50.858;4.376;2023-04-03T01:56:06;14.30;;;8.25;;
39188;SDS011;24915;50.858;4.376;2023-04-03T01:58:32;12.82;;;8.30;;
39188;SDS011;24915;50.858;4.376;2023-04-03T02:00:58;14.15;;;8.30;;
39188;SDS011;24915;50.858;4.376;2023-04-03T02:03:24;14.23;;;8.40;;
39188;SDS011;24915;50.858;4.376;2023-04-03T02:05:50;13.85;;;7.88;;
39188;SDS011;24915;50.858;4.376;2023-04-03T02:08:16;12.77;;;7.60;;
39188;SDS011;24915;50.858;4.376;2023-04-03T02:10:43;14.18;;;8.77;;
39188;SDS011;24915;50.858;4.376;2023-04-03T02:13:11;15.98;;;8.50;;
39188;SDS011;24915;50.858;4.376;2023-04-03T02:15:40;11.05;;;8.07;;
39188;SDS011;24915;50.858;4.376;2023-04-03T02:18:06;11.52;;;7.97;;
39188;SDS011;24915;50.858;4.376;2023-04-03T02:20:32;13.63;;;7.95;;
39188;SDS011;24915;50.858;4.376;2023-04-03T02:22:59;12.20;;;8.65;;
39188;SDS011;24915;50.858;4.376;2023-04-03T02:25:25;14.50;;;8.40;;
39188;SDS011;24915;50.858;4.376;2023-04-03T02:27:51;12.98;;;8.18;;
39188;SDS011;24915;50.858;4.376;2023-04-03T02:30:17;10.38;;;7.78;;
39188;SDS011;24915;50.858;4.376;2023-04-03T02:32:43;16.20;;;7.63;;
39188;SDS011;24915;50.858;4.376;2023-04-03T02:35:09;12.38;;;7.80;;
39188;SDS011;24915;50.858;4.376;2023-04-03T02:37:35;11.35;;;7.82;;
39188;SDS011;24915;50.858;4.376;2023-04-03T02:40:01;13.38;;;8.52;;
39188;SDS011;24915;50.858;4.376;2023-04-03T02:42:28;10.65;;;8.00;;
39188;SDS011;24915;50.858;4.376;2023-04-03T02:44:54;14.32;;;9.13;;
39188;SDS011;24915;50.858;4.376;2023-04-03T02:47:20;10.45;;;7.90;;
39188;SDS011;24915;50.858;4.376;2023-04-03T02:49:46;14.52;;;7.90;;
39188;SDS011;24915;50.858;4.376;2023-04-03T02:52:12;13.48;;;8.50;;
39188;SDS011;24915;50.858;4.376;2023-04-03T02:54:38;13.70;;;9.32;;
39188;SDS011;24915;50.858;4.376;2023-04-03T02:57:05;12.98;;;8.30;;
39188;SDS011;24915;50.858;4.376;2023-04-03T02:59:33;13.82;;;7.93;;
39188;SDS011;24915;50.858;4.376;2023-04-03T03:01:58;12.23;;;8.02;;
39188;SDS011;24915;50.858;4.376;2023-04-03T03:04:24;12.52;;;7.63;;
39188;SDS011;24915;50.858;4.376;2023-04-03T03:06:49;19.08;;;9.25;;
39188;SDS011;24915;50.858;4.376;2023-04-03T03:09:15;10.95;;;7.55;;
39188;SDS011;24915;50.858;4.376;2023-04-03T03:11:41;15.23;;;8.20;;
39188;SDS011;24915;50.858;4.376;2023-04-03T03:14:07;14.63;;;8.32;;
39188;SDS011;24915;50.858;4.376;2023-04-03T03:16:33;11.18;;;8.25;;
39188;SDS011;24915;50.858;4.376;2023-04-03T03:18:58;14.07;;;8.55;;
39188;SDS011;24915;50.858;4.376;2023-04-03T03:21:24;16.10;;;8.07;;
39188;SDS011;24915;50.858;4.376;2023-04-03T03:23:50;11.35;;;8.30;;
39188;SDS011;24915;50.858;4.376;2023-04-03T03:26:16;11.70;;;8.35;;
39188;SDS011;24915;50.858;4.376;2023-04-03T03:28:41;16.55;;;8.07;;
39188;SDS011;24915;50.858;4.376;2023-04-03T03:31:08;15.02;;;8.57;;
39188;SDS011;24915;50.858;4.376;2023-04-03T03:33:34;11.82;;;8.50;;
39188;SDS011;24915;50.858;4.376;2023-04-03T03:36:00;11.77;;;8.30;;
39188;SDS011;24915;50.858;4.376;2023-04-03T03:38:26;15.40;;;8.50;;
39188;SDS011;24915;50.858;4.376;2023-04-03T03:40:51;9.63;;;8.18;;
39188;SDS011;24915;50.858;4.376;2023-04-03T03:43:17;16.05;;;7.95;;
39188;SDS011;24915;50.858;4.376;2023-04-03T03:45:44;14.98;;;8.13;;
39188;SDS011;24915;50.858;4.376;2023-04-03T03:48:10;14.07;;;8.75;;
39188;SDS011;24915;50.858;4.376;2023-04-03T03:50:36;15.13;;;8.82;;
39188;SDS011;24915;50.858;4.376;2023-04-03T03:53:02;17.10;;;8.48;;
39188;SDS011;24915;50.858;4.376;2023-04-03T03:55:27;18.27;;;9.25;;
39188;SDS011;24915;50.858;4.376;2023-04-03T03:57:53;14.60;;;8.80;;
39188;SDS011;24915;50.858;4.376;2023-04-03T04:00:19;15.52;;;8.38;;
39188;SDS011;24915;50.858;4.376;2023-04-03T04:02:45;13.63;;;9.10;;
39188;SDS011;24915;50.858;4.376;2023-04-03T04:05:11;14.32;;;9.55;;
39188;SDS011;24915;50.858;4.376;2023-04-03T04:07:37;18.10;;;9.13;;
39188;SDS011;24915;50.858;4.376;2023-04-03T04:10:03;18.30;;;9.10;;
39188;SDS011;24915;50.858;4.376;2023-04-03T04:12:29;13.73;;;8.90;;
39188;SDS011;24915;50.858;4.376;2023-04-03T04:14:55;18.23;;;9.73;;
39188;SDS011;24915;50.858;4.376;2023-04-03T04:17:21;21.00;;;10.07;;
39188;SDS011;24915;50.858;4.376;2023-04-03T04:19:46;16.10;;;9.10;;
39188;SDS011;24915;50.858;4.376;2023-04-03T04:22:12;15.13;;;9.60;;
39188;SDS011;24915;50.858;4.376;2023-04-03T04:24:37;14.07;;;9.18;;
39188;SDS011;24915;50.858;4.376;2023-04-03T04:27:03;15.35;;;9.70;;
39188;SDS011;24915;50.858;4.376;2023-04-03T04:29:29;14.85;;;9.43;;
39188;SDS011;24915;50.858;4.376;2023-04-03T04:31:55;15.00;;;9.90;;
39188;SDS011;24915;50.858;4.376;2023-04-03T04:34:21;14.30;;;9.60;;
39188;SDS011;24915;50.858;4.376;2023-04-03T04:36:46;14.88;;;9.50;;
39188;SDS011;24915;50.858;4.376;2023-04-03T04:39:12;17.90;;;10.05;;
39188;SDS011;24915;50.858;4.376;2023-04-03T04:41:37;15.77;;;10.07;;
39188;SDS011;24915;50.858;4.376;2023-04-03T04:44:04;12.90;;;10.32;;
39188;SDS011;24915;50.858;4.376;2023-04-03T04:46:30;15.93;;;10.57;;
39188;SDS011;24915;50.858;4.376;2023-04-03T04:48:56;15.05;;;10.48;;
39188;SDS011;24915;50.858;4.376;2023-04-03T04:51:22;18.13;;;10.85;;
39188;SDS011;24915;50.858;4.376;2023-04-03T04:53:47;17.65;;;11.50;;
39188;SDS011;24915;50.858;4.376;2023-04-03T04:56:13;19.48;;;10.88;;
39188;SDS011;24915;50.858;4.376;2023-04-03T04:58:39;20.45;;;11.40;;
39188;SDS011;24915;50.858;4.376;2023-04-03T05:01:06;20.52;;;12.00;;
39188;SDS011;24915;50.858;4.376;2023-04-03T05:03:34;18.58;;;11.45;;
39188;SDS011;24915;50.858;4.376;2023-04-03T05:06:01;17.67;;;11.18;;
39188;SDS011;24915;50.858;4.376;2023-04-03T05:08:27;17.00;;;11.13;;
39188;SDS011;24915;50.858;4.376;2023-04-03T05:10:53;18.27;;;11.35;;
39188;SDS011;24915;50.858;4.376;2023-04-03T05:13:19;18.58;;;10.55;;
39188;SDS011;24915;50.858;4.376;2023-04-03T05:15:45;16.58;;;11.25;;
39188;SDS011;24915;50.858;4.376;2023-04-03T05:18:11;22.52;;;12.25;;
39188;SDS011;24915;50.858;4.376;2023-04-03T05:20:38;20.08;;;12.13;;
39188;SDS011;24915;50.858;4.376;2023-04-03T05:23:04;43.75;;;13.70;;
39188;SDS011;24915;50.858;4.376;2023-04-03T05:25:30;55.60;;;13.93;;
39188;SDS011;24915;50.858;4.376;2023-04-03T05:27:55;48.85;;;14.18;;
39188;SDS011;24915;50.858;4.376;2023-04-03T05:30:21;54.30;;;13.77;;
39188;SDS011;24915;50.858;4.376;2023-04-03T05:32:47;59.20;;;14.30;;
39188;SDS011;24915;50.858;4.376;2023-04-03T05:35:12;25.77;;;13.38;;
39188;SDS011;24915;50.858;4.376;2023-04-03T05:37:39;29.77;;;12.38;;
39188;SDS011;24915;50.858;4.376;2023-04-03T05:40:05;23.58;;;12.52;;
39188;SDS011;24915;50.858;4.376;2023-04-03T05:42:32;20.42;;;11.88;;
39188;SDS011;24915;50.858;4.376;2023-04-03T05:44:57;23.52;;;12.90;;
39188;SDS011;24915;50.858;4.376;2023-04-03T05:47:23;20.05;;;12.93;;
39188;SDS011;24915;50.858;4.376;2023-04-03T05:49:49;23.98;;;12.73;;
39188;SDS011;24915;50.858;4.376;2023-04-03T05:52:49;23.95;;;13.23;;
39188;SDS011;24915;50.858;4.376;2023-04-03T05:55:09;21.55;;;12.15;;
39188;SDS011;24915;50.858;4.376;2023-04-03T05:57:35;26.17;;;11.68;;
39188;SDS011;24915;50.858;4.376;2023-04-03T06:00:00;22.45;;;12.13;;
39188;SDS011;24915;50.858;4.376;2023-04-03T06:02:26;19.75;;;11.55;;
39188;SDS011;24915;50.858;4.376;2023-04-03T06:04:53;21.63;;;12.75;;
39188;SDS011;24915;50.858;4.376;2023-04-03T06:07:21;22.30;;;11.48;;
39188;SDS011;24915;50.858;4.376;2023-04-03T06:09:52;24.80;;;11.75;;
39188;SDS011;24915;50.858;4.376;2023-04-03T06:12:18;17.85;;;11.93;;
39188;SDS011;24915;50.858;4.376;2023-04-03T06:14:44;24.10;;;12.00;;
39188;SDS011;24915;50.858;4.376;2023-04-03T06:17:10;30.35;;;11.65;;
39188;SDS011;24915;50.858;4.376;2023-04-03T06:19:37;22.05;;;12.00;;
39188;SDS011;24915;50.858;4.376;2023-04-03T06:22:03;23.25;;;12.32;;
39188;SDS011;24915;50.858;4.376;2023-04-03T06:24:28;26.95;;;11.73;;
39188;SDS011;24915;50.858;4.376;2023-04-03T06:26:56;24.52;;;11.43;;
39188;SDS011;24915;50.858;4.376;2023-04-03T06:29:23;16.98;;;11.63;;
39188;SDS011;24915;50.858;4.376;2023-04-03T06:31:49;18.83;;;11.40;;
39188;SDS011;24915;50.858;4.376;2023-04-03T06:34:15;18.80;;;10.98;;
39188;SDS011;24915;50.858;4.376;2023-04-03T06:36:42;21.05;;;11.25;;
39188;SDS011;24915;50.858;4.376;2023-04-03T06:39:09;15.25;;;9.93;;
39188;SDS011;24915;50.858;4.376;2023-04-03T06:41:41;20.50;;;11.05;;
39188;SDS011;24915;50.858;4.376;2023-04-03T06:44:07;24.27;;;10.40;;
39188;SDS011;24915;50.858;4.376;2023-04-03T06:46:35;18.80;;;11.07;;
39188;SDS011;24915;50.858;4.376;2023-04-03T06:49:02;22.70;;;10.90;;
39188;SDS011;24915;50.858;4.376;2023-04-03T06:51:29;26.20;;;10.65;;
39188;SDS011;24915;50.858;4.376;2023-04-03T06:53:56;18.45;;;10.30;;
39188;SDS011;24915;50.858;4.376;2023-04-03T06:56:23;28.73;;;11.23;;
39188;SDS011;24915;50.858;4.376;2023-04-03T06:58:50;16.95;;;10.10;;
39188;SDS011;24915;50.858;4.376;2023-04-03T07:01:19;21.67;;;9.88;;
39188;SDS011;24915;50.858;4.376;2023-04-03T07:03:45;21.17;;;10.40;;
39188;SDS011;24915;50.858;4.376;2023-04-03T07:06:13;17.45;;;9.70;;
39188;SDS011;24915;50.858;4.376;2023-04-03T07:08:40;15.15;;;10.00;;
39188;SDS011;24915;50.858;4.376;2023-04-03T07:11:07;17.10;;;9.95;;
39188;SDS011;24915;50.858;4.376;2023-04-03T07:13:35;16.60;;;9.77;;
39188;SDS011;24915;50.858;4.376;2023-04-03T07:16:02;28.77;;;10.00;;
39188;SDS011;24915;50.858;4.376;2023-04-03T07:18:30;17.02;;;9.43;;
39188;SDS011;24915;50.858;4.376;2023-04-03T07:20:56;17.80;;;9.55;;
39188;SDS011;24915;50.858;4.376;2023-04-03T07:23:22;15.02;;;8.93;;
39188;SDS011;24915;50.858;4.376;2023-04-03T07:25:49;18.85;;;9.05;;
39188;SDS011;24915;50.858;4.376;2023-04-03T07:28:16;16.52;;;8.18;;
39188;SDS011;24915;50.858;4.376;2023-04-03T07:30:47;12.57;;;8.35;;
39188;SDS011;24915;50.858;4.376;2023-04-03T07:33:16;15.82;;;7.93;;
39188;SDS011;24915;50.858;4.376;2023-04-03T07:35:43;29.42;;;8.93;;
39188;SDS011;24915;50.858;4.376;2023-04-03T07:38:10;18.38;;;8.40;;
39188;SDS011;24915;50.858;4.376;2023-04-03T07:40:37;21.05;;;9.10;;
39188;SDS011;24915;50.858;4.376;2023-04-03T07:43:04;11.85;;;8.30;;
39188;SDS011;24915;50.858;4.376;2023-04-03T07:45:32;14.07;;;8.68;;
39188;SDS011;24915;50.858;4.376;2023-04-03T07:47:59;13.65;;;8.27;;
39188;SDS011;24915;50.858;4.376;2023-04-03T07:50:26;15.32;;;8.38;;
39188;SDS011;24915;50.858;4.376;2023-04-03T07:52:53;24.55;;;8.48;;
39188;SDS011;24915;50.858;4.376;2023-04-03T07:55:22;18.98;;;8.50;;
39188;SDS011;24915;50.858;4.376;2023-04-03T07:57:48;13.05;;;7.82;;
39188;SDS011;24915;50.858;4.376;2023-04-03T08:00:14;15.70;;;8.55;;
39188;SDS011;24915;50.858;4.376;2023-04-03T08:02:40;22.55;;;8.82;;
39188;SDS011;24915;50.858;4.376;2023-04-03T08:05:05;13.70;;;7.72;;
39188;SDS011;24915;50.858;4.376;2023-04-03T08:07:31;11.00;;;7.28;;
39188;SDS011;24915;50.858;4.376;2023-04-03T08:09:57;14.00;;;7.47;;
39188;SDS011;24915;50.858;4.376;2023-04-03T08:12:23;15.55;;;8.00;;
39188;SDS011;24915;50.858;4.376;2023-04-03T08:14:48;11.32;;;7.55;;
39188;SDS011;24915;50.858;4.376;2023-04-03T08:17:14;14.25;;;7.60;;
39188;SDS011;24915;50.858;4.376;2023-04-03T08:19:40;12.27;;;7.05;;
39188;SDS011;24915;50.858;4.376;2023-04-03T08:22:06;13.70;;;7.75;;
39188;SDS011;24915;50.858;4.376;2023-04-03T08:24:32;16.20;;;7.82;;
39188;SDS011;24915;50.858;4.376;2023-04-03T08:26:58;15.77;;;7.53;;
39188;SDS011;24915;50.858;4.376;2023-04-03T08:29:24;15.60;;;7.63;;
39188;SDS011;24915;50.858;4.376;2023-04-03T08:31:50;11.57;;;7.20;;
39188;SDS011;24915;50.858;4.376;2023-04-03T08:34:16;13.82;;;6.72;;
39188;SDS011;24915;50.858;4.376;2023-04-03T08:36:42;8.52;;;6.15;;
39188;SDS011;24915;50.858;4.376;2023-04-03T08:39:08;14.85;;;6.55;;
39188;SDS011;24915;50.858;4.376;2023-04-03T08:41:40;20.60;;;7.28;;
39188;SDS011;24915;50.858;4.376;2023-04-03T08:55:24;28.75;;;7.15;;
39188;SDS011;24915;50.858;4.376;2023-04-03T08:58:01;15.35;;;6.35;;
39188;SDS011;24915;50.858;4.376;2023-04-03T09:03:11;32.03;;;7.97;;
39188;SDS011;24915;50.858;4.376;2023-04-03T09:05:43;37.47;;;7.22;;
39188;SDS011;24915;50.858;4.376;2023-04-03T09:10:48;74.93;;;8.13;;
39188;SDS011;24915;50.858;4.376;2023-04-03T09:17:10;15.10;;;7.25;;
39188;SDS011;24915;50.858;4.376;2023-04-03T09:21:59;19.08;;;4.50;;
39188;SDS011;24915;50.858;4.376;2023-04-03T09:24:43;215.40;;;20.60;;
39188;SDS011;24915;50.858;4.376;2023-04-03T09:27:12;17.77;;;6.60;;
39188;SDS011;24915;50.858;4.376;2023-04-03T09:29:40;53.55;;;6.43;;
39188;SDS011;24915;50.858;4.376;2023-04-03T09:32:23;93.53;;;6.65;;
39188;SDS011;24915;50.858;4.376;2023-04-03T09:34:52;14.80;;;3.80;;
39188;SDS011;24915;50.858;4.376;2023-04-03T09:37:38;11.73;;;3.22;;
39188;SDS011;24915;50.858;4.376;2023-04-03T09:40:41;72.47;;;5.97;;
39188;SDS011;24915;50.858;4.376;2023-04-03T09:45:43;46.33;;;5.40;;
39188;SDS011;24915;50.858;4.376;2023-04-03T09:53:28;21.50;;;4.32;;
39188;SDS011;24915;50.858;4.376;2023-04-03T09:55:57;15.35;;;3.03;;
39188;SDS011;24915;50.858;4.376;2023-04-03T09:58:29;5.22;;;3.00;;
39188;SDS011;24915;50.858;4.376;2023-04-03T10:01:20;28.70;;;3.55;;
39188;SDS011;24915;50.858;4.376;2023-04-03T10:03:47;15.20;;;4.13;;
39188;SDS011;24915;50.858;4.376;2023-04-03T10:06:42;19.88;;;4.00;;
39188;SDS011;24915;50.858;4.376;2023-04-03T10:14:26;57.28;;;4.82;;
39188;SDS011;24915;50.858;4.376;2023-04-03T10:16:59;12.73;;;2.83;;
39188;SDS011;24915;50.858;4.376;2023-04-03T10:22:13;6.65;;;3.10;;
39188;SDS011;24915;50.858;4.376;2023-04-03T10:39:04;15.80;;;3.17;;
39188;SDS011;24915;50.858;4.376;2023-04-03T10:49:51;10.25;;;2.88;;
39188;SDS011;24915;50.858;4.376;2023-04-03T10:55:41;15.27;;;2.95;;
39188;SDS011;24915;50.858;4.376;2023-04-03T10:58:20;49.08;;;5.20;;
39188;SDS011;24915;50.858;4.376;2023-04-03T11:01:08;23.35;;;4.10;;
39188;SDS011;24915;50.858;4.376;2023-04-03T11:04:01;16.80;;;3.00;;
39188;SDS011;24915;50.858;4.376;2023-04-03T11:06:54;18.13;;;3.55;;
39188;SDS011;24915;50.858;4.376;2023-04-03T11:09:37;9.20;;;3.00;;
39188;SDS011;24915;50.858;4.376;2023-04-03T11:12:15;128.50;;;7.80;;
39188;SDS011;24915;50.858;4.376;2023-04-03T11:15:03;82.20;;;6.28;;
39188;SDS011;24915;50.858;4.376;2023-04-03T11:17:36;105.10;;;7.15;;
39188;SDS011;24915;50.858;4.376;2023-04-03T11:20:13;158.65;;;8.75;;
39188;SDS011;24915;50.858;4.376;2023-04-03T11:22:47;153.40;;;8.70;;
39188;SDS011;24915;50.858;4.376;2023-04-03T11:25:20;11.40;;;3.33;;
39188;SDS011;24915;50.858;4.376;2023-04-03T11:27:55;48.15;;;5.78;;
39188;SDS011;24915;50.858;4.376;2023-04-03T11:31:25;45.05;;;4.95;;
39188;SDS011;24915;50.858;4.376;2023-04-03T11:36:18;9.88;;;3.75;;
39188;SDS011;24915;50.858;4.376;2023-04-03T11:38:45;7.70;;;2.13;;
39188;SDS011;24915;50.858;4.376;2023-04-03T11:41:12;6.72;;;2.58;;
39188;SDS011;24915;50.858;4.376;2023-04-03T11:43:55;8.93;;;2.30;;
39188;SDS011;24915;50.858;4.376;2023-04-03T11:46:51;7.68;;;2.58;;
39188;SDS011;24915;50.858;4.376;2023-04-03T12:16:06;17.17;;;3.13;;
39188;SDS011;24915;50.858;4.376;2023-04-03T12:29:02;4.25;;;1.83;;
39188;SDS011;24915;50.858;4.376;2023-04-03T12:31:56;7.57;;;1.92;;
39188;SDS011;24915;50.858;4.376;2023-04-03T12:34:40;4.47;;;1.85;;
39188;SDS011;24915;50.858;4.376;2023-04-03T12:37:37;2.90;;;2.13;;
39188;SDS011;24915;50.858;4.376;2023-04-03T12:45:58;106.80;;;5.20;;
39188;SDS011;24915;50.858;4.376;2023-04-03T12:48:51;35.75;;;2.67;;
39188;SDS011;24915;50.858;4.376;2023-04-03T12:51:21;15.55;;;2.55;;
39188;SDS011;24915;50.858;4.376;2023-04-03T12:53:56;9.60;;;2.75;;
39188;SDS011;24915;50.858;4.376;2023-04-03T12:56:30;16.08;;;2.35;;
39188;SDS011;24915;50.858;4.376;2023-04-03T13:01:58;11.27;;;2.40;;
39188;SDS011;24915;50.858;4.376;2023-04-03T13:04:28;4.07;;;2.05;;
39188;SDS011;24915;50.858;4.376;2023-04-03T13:06:56;7.05;;;1.90;;
39188;SDS011;24915;50.858;4.376;2023-04-03T13:09:26;9.85;;;2.15;;
39188;SDS011;24915;50.858;4.376;2023-04-03T13:11:56;2.92;;;1.90;;
39188;SDS011;24915;50.858;4.376;2023-04-03T13:14:23;7.40;;;1.55;;
39188;SDS011;24915;50.858;4.376;2023-04-03T13:19:36;5.45;;;1.55;;
39188;SDS011;24915;50.858;4.376;2023-04-03T13:22:04;9.57;;;1.92;;
39188;SDS011;24915;50.858;4.376;2023-04-03T13:24:35;5.18;;;1.77;;
39188;SDS011;24915;50.858;4.376;2023-04-03T13:27:04;7.03;;;2.50;;
39188;SDS011;24915;50.858;4.376;2023-04-03T13:29:32;3.42;;;1.67;;
39188;SDS011;24915;50.858;4.376;2023-04-03T13:32:00;6.75;;;1.80;;
39188;SDS011;24915;50.858;4.376;2023-04-03T13:34:29;2.67;;;1.67;;
39188;SDS011;24915;50.858;4.376;2023-04-03T13:37:05;3.20;;;1.60;;
39188;SDS011;24915;50.858;4.376;2023-04-03T13:39:36;18.05;;;3.15;;
39188;SDS011;24915;50.858;4.376;2023-04-03T13:42:17;19.52;;;2.28;;
39188;SDS011;24915;50.858;4.376;2023-04-03T13:44:49;6.88;;;2.53;;
39188;SDS011;24915;50.858;4.376;2023-04-03T13:47:39;16.88;;;2.40;;
39188;SDS011;24915;50.858;4.376;2023-04-03T13:50:22;8.63;;;2.40;;
39188;SDS011;24915;50.858;4.376;2023-04-03T13:53:01;6.57;;;2.13;;
39188;SDS011;24915;50.858;4.376;2023-04-03T13:55:35;7.45;;;2.30;;
39188;SDS011;24915;50.858;4.376;2023-04-03T13:58:21;7.72;;;2.60;;
39188;SDS011;24915;50.858;4.376;2023-04-03T14:00:51;8.77;;;2.25;;
39188;SDS011;24915;50.858;4.376;2023-04-03T14:03:33;9.05;;;1.92;;
39188;SDS011;24915;50.858;4.376;2023-04-03T14:06:10;12.82;;;3.00;;
39188;SDS011;24915;50.858;4.376;2023-04-03T14:08:38;13.15;;;2.47;;
39188;SDS011;24915;50.858;4.376;2023-04-03T14:11:04;6.70;;;1.83;;
39188;SDS011;24915;50.858;4.376;2023-04-03T14:13:32;13.30;;;2.58;;
39188;SDS011;24915;50.858;4.376;2023-04-03T14:15:58;7.30;;;2.28;;
39188;SDS011;24915;50.858;4.376;2023-04-03T14:18:25;10.68;;;2.35;;
39188;SDS011;24915;50.858;4.376;2023-04-03T14:20:52;5.35;;;2.72;;
39188;SDS011;24915;50.858;4.376;2023-04-03T14:23:17;8.02;;;2.50;;
39188;SDS011;24915;50.858;4.376;2023-04-03T14:25:43;9.55;;;2.53;;
39188;SDS011;24915;50.858;4.376;2023-04-03T14:28:19;8.02;;;2.70;;
39188;SDS011;24915;50.858;4.376;2023-04-03T14:30:46;29.42;;;4.43;;
39188;SDS011;24915;50.858;4.376;2023-04-03T14:33:15;14.60;;;4.05;;
39188;SDS011;24915;50.858;4.376;2023-04-03T14:35:43;16.38;;;2.88;;
39188;SDS011;24915;50.858;4.376;2023-04-03T14:38:27;7.75;;;2.03;;
39188;SDS011;24915;50.858;4.376;2023-04-03T14:40:55;6.47;;;2.30;;
39188;SDS011;24915;50.858;4.376;2023-04-03T14:43:22;15.95;;;2.20;;
39188;SDS011;24915;50.858;4.376;2023-04-03T14:45:48;14.45;;;3.50;;
39188;SDS011;24915;50.858;4.376;2023-04-03T14:48:22;21.98;;;3.28;;
39188;SDS011;24915;50.858;4.376;2023-04-03T14:50:50;5.47;;;2.15;;
39188;SDS011;24915;50.858;4.376;2023-04-03T14:53:17;5.93;;;1.80;;
39188;SDS011;24915;50.858;4.376;2023-04-03T14:55:47;16.42;;;3.28;;
39188;SDS011;24915;50.858;4.376;2023-04-03T14:58:15;12.18;;;2.42;;
39188;SDS011;24915;50.858;4.376;2023-04-03T15:00:42;14.85;;;2.20;;
39188;SDS011;24915;50.858;4.376;2023-04-03T15:03:18;5.53;;;2.10;;
39188;SDS011;24915;50.858;4.376;2023-04-03T15:05:47;7.95;;;2.05;;
39188;SDS011;24915;50.858;4.376;2023-04-03T15:08:17;7.90;;;2.00;;
39188;SDS011;24915;50.858;4.376;2023-04-03T15:10:48;8.20;;;2.35;;
39188;SDS011;24915;50.858;4.376;2023-04-03T15:13:15;14.80;;;2.20;;
39188;SDS011;24915;50.858;4.376;2023-04-03T15:15:41;7.53;;;1.90;;
39188;SDS011;24915;50.858;4.376;2023-04-03T15:18:09;11.93;;;2.05;;
39188;SDS011;24915;50.858;4.376;2023-04-03T15:20:38;12.32;;;2.65;;
39188;SDS011;24915;50.858;4.376;2023-04-03T15:23:04;7.05;;;2.92;;
39188;SDS011;24915;50.858;4.376;2023-04-03T15:25:31;5.00;;;1.85;;
39188;SDS011;24915;50.858;4.376;2023-04-03T15:27:57;15.23;;;2.45;;
39188;SDS011;24915;50.858;4.376;2023-04-03T15:30:23;26.10;;;3.60;;
39188;SDS011;24915;50.858;4.376;2023-04-03T15:32:49;15.98;;;4.63;;
39188;SDS011;24915;50.858;4.376;2023-04-03T15:35:15;15.90;;;2.60;;
39188;SDS011;24915;50.858;4.376;2023-04-03T15:37:41;4.10;;;1.85;;
39188;SDS011;24915;50.858;4.376;2023-04-03T15:40:07;9.02;;;2.67;;
39188;SDS011;24915;50.858;4.376;2023-04-03T15:42:33;6.55;;;2.70;;
39188;SDS011;24915;50.858;4.376;2023-04-03T15:44:59;12.75;;;2.75;;
39188;SDS011;24915;50.858;4.376;2023-04-03T15:47:25;5.55;;;2.83;;
39188;SDS011;24915;50.858;4.376;2023-04-03T15:49:51;7.28;;;2.45;;
39188;SDS011;24915;50.858;4.376;2023-04-03T15:52:18;6.50;;;2.00;;
39188;SDS011;24915;50.858;4.376;2023-04-03T15:54:43;2.97;;;1.83;;
39188;SDS011;24915;50.858;4.376;2023-04-03T15:57:09;4.35;;;2.10;;
39188;SDS011;24915;50.858;4.376;2023-04-03T15:59:35;7.85;;;2.92;;
39188;SDS011;24915;50.858;4.376;2023-04-03T16:02:01;7.35;;;3.10;;
39188;SDS011;24915;50.858;4.376;2023-04-03T16:04:30;3.78;;;2.45;;
39188;SDS011;24915;50.858;4.376;2023-04-03T16:06:56;4.82;;;2.03;;
39188;SDS011;24915;50.858;4.376;2023-04-03T16:09:21;4.80;;;2.65;;
39188;SDS011;24915;50.858;4.376;2023-04-03T16:11:47;4.13;;;3.25;;
39188;SDS011;24915;50.858;4.376;2023-04-03T16:14:13;6.00;;;2.63;;
39188;SDS011;24915;50.858;4.376;2023-04-03T16:16:39;3.58;;;2.05;;
39188;SDS011;24915;50.858;4.376;2023-04-03T16:19:05;4.85;;;2.47;;
39188;SDS011;24915;50.858;4.376;2023-04-03T16:21:31;4.43;;;2.47;;
39188;SDS011;24915;50.858;4.376;2023-04-03T16:23:58;7.30;;;3.13;;
39188;SDS011;24915;50.858;4.376;2023-04-03T16:26:24;5.43;;;3.10;;
39188;SDS011;24915;50.858;4.376;2023-04-03T16:28:50;6.35;;;2.58;;
39188;SDS011;24915;50.858;4.376;2023-04-03T16:31:16;4.00;;;2.80;;
39188;SDS011;24915;50.858;4.376;2023-04-03T16:33:42;5.28;;;2.95;;
39188;SDS011;24915;50.858;4.376;2023-04-03T16:36:07;3.90;;;2.70;;
39188;SDS011;24915;50.858;4.376;2023-04-03T16:38:33;6.47;;;3.33;;
39188;SDS011;24915;50.858;4.376;2023-04-03T16:40:59;6.75;;;2.85;;
39188;SDS011;24915;50.858;4.376;2023-04-03T16:43:29;6.47;;;3.63;;
39188;SDS011;24915;50.858;4.376;2023-04-03T16:45:58;7.65;;;2.88;;
39188;SDS011;24915;50.858;4.376;2023-04-03T16:48:24;7.45;;;3.38;;